Cincinnati, Ohio
Traffic Map
Current Weather Conditions
Cincinnati, Ohio
Broken Clouds
Broken Clouds
14°
Feels Like: 14°
Wind Chill: 14° Ceiling: 2500
Heat Index: 14° Visibility: 10mi
Dew Point: 13° Wind: 9mph
Humidity: 93% Direction: 180° (S)
Pressure: 30.07in Gusts: 0mph
Raw Report DataKLUK 011353Z 18008KT 10SM BKN025 14/13 A3007 RMK AO2 SLP183 T01440133
Traffic Incident Summary
Active as of:
Severity:
Category:
InformationThere was an issue retrieving the traffic information for this location. Please try a different location or try again shortly.
Advertisements
Track Severe Weather on mobile